createdAt,value
2023-09-27T00:00:10.390Z,1.58
2023-09-27T00:02:39.253Z,1.45
2023-09-27T00:05:08.913Z,1.63
2023-09-27T00:07:38.148Z,1.60
2023-09-27T00:10:06.809Z,1.75
2023-09-27T00:12:36.050Z,1.60
2023-09-27T00:15:04.739Z,1.75
2023-09-27T00:17:33.124Z,2.13
2023-09-27T00:20:01.015Z,2.13
2023-09-27T00:22:29.209Z,1.48
2023-09-27T00:24:57.215Z,1.50
2023-09-27T00:27:25.716Z,1.95
2023-09-27T00:29:55.149Z,1.65
2023-09-27T00:32:23.288Z,1.63
2023-09-27T00:34:51.162Z,1.97
2023-09-27T00:37:19.075Z,1.92
2023-09-27T00:39:47.021Z,1.70
2023-09-27T00:42:15.123Z,1.67
2023-09-27T00:44:42.983Z,1.70
2023-09-27T00:47:13.002Z,2.10
2023-09-27T00:49:41.552Z,1.70
2023-09-27T00:52:10.336Z,1.50
2023-09-27T00:54:38.681Z,1.83
2023-09-27T00:57:07.011Z,2.22
2023-09-27T00:59:35.346Z,1.67
2023-09-27T01:02:03.371Z,1.90
2023-09-27T01:04:33.074Z,2.20
2023-09-27T01:07:01.847Z,2.17
2023-09-27T01:09:33.726Z,1.73
2023-09-27T01:12:01.583Z,2.10
2023-09-27T01:14:30.482Z,1.83
2023-09-27T01:16:58.350Z,1.73
2023-09-27T01:19:26.261Z,2.20
2023-09-27T01:21:55.845Z,1.77
2023-09-27T01:24:27.577Z,1.60
2023-09-27T01:26:56.696Z,1.70
2023-09-27T01:29:24.527Z,2.20
2023-09-27T01:31:52.929Z,1.80
2023-09-27T01:34:20.751Z,2.07
2023-09-27T01:36:48.538Z,2.13
2023-09-27T01:39:16.380Z,1.90
2023-09-27T01:41:45.627Z,1.90
2023-09-27T01:44:13.415Z,1.83
2023-09-27T01:46:41.398Z,2.20
2023-09-27T01:49:09.676Z,1.80
2023-09-27T01:51:38.235Z,1.97
2023-09-27T01:54:06.207Z,1.70
2023-09-27T01:56:34.023Z,1.50
2023-09-27T01:59:03.169Z,1.63
2023-09-27T02:01:31.281Z,1.80
2023-09-27T02:03:59.223Z,1.87
2023-09-27T02:06:26.979Z,2.03
2023-09-27T02:08:54.775Z,1.47
2023-09-27T02:11:26.815Z,1.77
2023-09-27T02:13:54.967Z,1.80
2023-09-27T02:16:24.247Z,2.30
2023-09-27T02:18:52.482Z,2.00
2023-09-27T02:21:20.544Z,1.80
2023-09-27T02:23:48.332Z,1.90
2023-09-27T02:26:17.119Z,1.90
2023-09-27T02:28:45.375Z,1.90
2023-09-27T02:31:13.808Z,2.00
2023-09-27T02:33:43.181Z,1.93
2023-09-27T02:36:11.262Z,1.90
2023-09-27T02:38:39.103Z,1.90
2023-09-27T02:41:07.359Z,1.47
2023-09-27T02:43:35.187Z,1.87
2023-09-27T02:46:03.440Z,1.97
2023-09-27T02:48:31.276Z,1.87
2023-09-27T02:51:00.527Z,2.00
2023-09-27T02:53:28.778Z,1.83
2023-09-27T02:55:56.624Z,1.70
2023-09-27T02:58:24.507Z,2.10
2023-09-27T03:00:53.523Z,2.50
2023-09-27T03:03:21.418Z,2.00
2023-09-27T03:05:49.250Z,2.03
2023-09-27T03:08:18.706Z,2.10
2023-09-27T03:10:46.819Z,2.17
2023-09-27T03:13:14.623Z,1.97
2023-09-27T03:15:42.758Z,1.73
2023-09-27T03:18:10.596Z,2.03
2023-09-27T03:20:38.760Z,2.00
2023-09-27T03:23:06.734Z,2.27
2023-09-27T03:25:35.897Z,2.23
2023-09-27T03:28:03.696Z,2.30
2023-09-27T03:30:31.623Z,2.87
2023-09-27T03:32:59.474Z,2.37
2023-09-27T03:35:27.914Z,2.13
2023-09-27T03:37:58.141Z,2.33
2023-09-27T03:40:26.094Z,2.07
2023-09-27T03:42:55.257Z,2.00
2023-09-27T03:45:23.020Z,2.43
2023-09-27T03:47:51.151Z,2.20
2023-09-27T03:50:19.905Z,2.00
2023-09-27T03:52:47.722Z,2.10
2023-09-27T03:55:15.525Z,1.98
2023-09-27T03:57:43.680Z,1.90
2023-09-27T04:00:16.167Z,2.27
2023-09-27T04:02:44.491Z,2.80
2023-09-27T04:05:13.430Z,2.40
2023-09-27T04:07:41.462Z,2.43
2023-09-27T04:10:10.372Z,2.03
2023-09-27T04:12:38.552Z,2.10
2023-09-27T04:15:10.070Z,2.15
2023-09-27T04:17:40.123Z,2.20
2023-09-27T04:20:15.781Z,1.97
2023-09-27T04:22:45.539Z,2.13
2023-09-27T04:25:14.386Z,2.47
2023-09-27T04:27:43.298Z,1.97
2023-09-27T04:30:13.591Z,2.55
2023-09-27T04:32:44.759Z,1.90
2023-09-27T04:35:13.597Z,2.00
2023-09-27T04:37:42.307Z,2.07
2023-09-27T04:40:12.324Z,1.93
2023-09-27T04:42:40.169Z,2.33
2023-09-27T04:45:09.569Z,2.40
2023-09-27T04:47:37.440Z,1.90
2023-09-27T04:50:10.550Z,2.10
2023-09-27T04:52:38.546Z,2.10
2023-09-27T04:55:08.344Z,2.07
2023-09-27T04:57:36.233Z,2.40
2023-09-27T05:00:05.261Z,2.15
2023-09-27T05:02:33.237Z,1.80
2023-09-27T05:05:01.090Z,2.30
2023-09-27T05:07:30.644Z,2.30
2023-09-27T05:09:58.507Z,1.93
2023-09-27T05:12:26.335Z,2.10
2023-09-27T05:14:54.173Z,2.27
2023-09-27T05:17:22.041Z,2.37
2023-09-27T05:19:49.981Z,2.10
2023-09-27T05:22:20.387Z,2.37
2023-09-27T05:24:49.860Z,2.50
2023-09-27T05:27:17.614Z,2.30
2023-09-27T05:29:46.376Z,2.27
2023-09-27T05:32:14.283Z,2.33
2023-09-27T05:34:42.134Z,2.27
2023-09-27T05:37:09.984Z,2.40
2023-09-27T05:39:38.039Z,2.20
2023-09-27T05:42:07.377Z,2.50
2023-09-27T05:44:35.377Z,2.47
2023-09-27T05:47:03.407Z,2.20
2023-09-27T05:49:32.530Z,2.20
2023-09-27T05:52:00.417Z,2.75
2023-09-27T05:54:28.264Z,2.90
2023-09-27T05:56:57.038Z,2.57
2023-09-27T05:59:27.094Z,2.70
2023-09-27T06:01:56.046Z,2.95
2023-09-27T06:04:23.994Z,2.53
2023-09-27T06:06:52.061Z,3.17
2023-09-27T06:09:20.207Z,2.40
2023-09-27T06:11:48.060Z,2.53
2023-09-27T06:14:15.937Z,3.05
2023-09-27T06:16:46.331Z,2.80
2023-09-27T06:19:14.302Z,2.70
2023-09-27T06:21:42.193Z,2.93
2023-09-27T06:24:11.024Z,2.50
2023-09-27T06:26:38.833Z,2.92
2023-09-27T06:29:06.782Z,3.27
2023-09-27T06:31:35.372Z,3.23
2023-09-27T06:34:04.717Z,3.35
2023-09-27T06:36:36.063Z,3.40
2023-09-27T06:39:08.429Z,3.42
2023-09-27T06:41:36.590Z,3.95
2023-09-27T06:44:05.965Z,3.25
2023-09-27T06:46:48.234Z,3.72
2023-09-27T06:49:18.650Z,3.05
2023-09-27T06:51:46.537Z,3.00
2023-09-27T06:54:14.369Z,3.17
2023-09-27T06:56:43.795Z,3.20
2023-09-27T06:59:12.205Z,3.53
2023-09-27T07:01:42.351Z,3.33
2023-09-27T07:04:10.461Z,2.70
2023-09-27T07:06:39.777Z,3.08
2023-09-27T07:09:14.378Z,2.75
2023-09-27T07:11:44.617Z,1.98
2023-09-27T07:14:13.484Z,2.53
2023-09-27T07:16:50.765Z,2.25
2023-09-27T07:19:24.557Z,2.10
2023-09-27T07:21:53.832Z,2.30
2023-09-27T07:24:21.724Z,2.10
2023-09-27T07:26:53.741Z,2.45
2023-09-27T07:29:21.919Z,2.13
2023-09-27T07:31:50.750Z,2.72
2023-09-27T07:34:18.602Z,2.30
2023-09-27T07:36:46.390Z,1.98
2023-09-27T07:39:16.923Z,2.10
2023-09-27T07:41:45.661Z,2.40
2023-09-27T07:44:13.805Z,2.03
2023-09-27T07:46:42.020Z,2.30
2023-09-27T07:49:10.396Z,2.70
2023-09-27T07:51:38.258Z,2.35
2023-09-27T07:54:08.905Z,2.33
2023-09-27T07:56:41.271Z,2.33
2023-09-27T07:59:09.639Z,2.28
2023-09-27T08:01:38.407Z,2.70
2023-09-27T08:04:11.836Z,2.47
2023-09-27T08:06:40.761Z,2.75
2023-09-27T08:09:14.731Z,2.95
2023-09-27T08:11:47.026Z,2.50
2023-09-27T08:14:17.365Z,2.50
2023-09-27T08:16:47.164Z,2.50
2023-09-27T08:19:15.415Z,2.03
2023-09-27T08:21:43.187Z,2.10
2023-09-27T08:24:11.007Z,2.38
2023-09-27T08:26:38.866Z,2.47
2023-09-27T08:29:09.034Z,2.50
2023-09-27T08:31:39.181Z,2.53
2023-09-27T08:34:07.025Z,2.05
2023-09-27T08:36:34.854Z,2.03
2023-09-27T08:39:02.694Z,2.28
2023-09-27T08:41:31.354Z,2.38
2023-09-27T08:43:59.694Z,2.00
2023-09-27T08:46:33.213Z,2.25
2023-09-27T08:49:02.199Z,2.40
2023-09-27T08:51:31.086Z,1.98
2023-09-27T08:53:59.226Z,1.88
2023-09-27T08:56:29.698Z,1.85
2023-09-27T08:58:58.910Z,2.28
2023-09-27T09:01:28.358Z,1.80
2023-09-27T09:03:57.317Z,1.80
2023-09-27T09:06:27.135Z,2.03
2023-09-27T09:08:55.321Z,2.20
2023-09-27T09:11:24.347Z,2.47
2023-09-27T09:14:00.381Z,1.83
2023-09-27T09:16:31.376Z,1.75
2023-09-27T09:19:00.998Z,2.25
2023-09-27T09:21:29.671Z,1.85
2023-09-27T09:23:57.553Z,1.90
2023-09-27T09:26:30.103Z,2.13
2023-09-27T09:29:01.772Z,1.70
2023-09-27T09:31:34.349Z,1.83
2023-09-27T09:34:05.825Z,1.83
2023-09-27T09:36:34.506Z,1.50
2023-09-27T09:39:06.466Z,1.80
2023-09-27T09:41:47.466Z,1.92
2023-09-27T09:44:20.807Z,1.30
2023-09-27T09:46:51.039Z,1.60
2023-09-27T09:49:19.108Z,1.77
2023-09-27T09:51:49.187Z,1.58
2023-09-27T09:54:26.237Z,1.60
2023-09-27T09:57:02.785Z,1.88
2023-09-27T09:59:39.551Z,1.83
2023-09-27T10:02:20.423Z,1.63
2023-09-27T10:04:50.618Z,1.95
2023-09-27T10:07:19.508Z,1.40
2023-09-27T10:09:48.351Z,1.83
2023-09-27T10:12:17.451Z,2.33
2023-09-27T10:14:47.316Z,2.05
2023-09-27T10:17:23.774Z,1.80
2023-09-27T10:20:13.624Z,1.75
2023-09-27T10:22:44.456Z,1.63
2023-09-27T10:25:35.595Z,1.85
2023-09-27T10:28:13.444Z,1.70
2023-09-27T10:31:07.737Z,1.20
2023-09-27T10:33:40.452Z,1.52
2023-09-27T10:36:31.762Z,1.25
2023-09-27T10:39:06.510Z,1.40
2023-09-27T10:41:45.994Z,1.50
2023-09-27T10:44:14.475Z,1.55
2023-09-27T10:46:42.657Z,1.10
2023-09-27T10:49:11.952Z,1.40
2023-09-27T10:51:41.311Z,1.52
2023-09-27T10:54:10.822Z,1.42
2023-09-27T10:56:40.303Z,2.08
2023-09-27T10:59:08.781Z,1.33
2023-09-27T11:01:37.146Z,1.60
2023-09-27T11:04:06.392Z,1.35
2023-09-27T11:06:35.617Z,1.60
2023-09-27T11:09:07.868Z,1.55
2023-09-27T11:11:35.821Z,1.42
2023-09-27T11:14:03.720Z,1.45
2023-09-27T11:16:31.689Z,1.65
2023-09-27T11:18:59.437Z,1.63
2023-09-27T11:21:28.169Z,1.42
2023-09-27T11:23:58.478Z,1.70
2023-09-27T11:26:27.949Z,1.50
2023-09-27T11:29:03.099Z,1.30
2023-09-27T11:31:32.792Z,1.50
2023-09-27T11:34:14.436Z,0.98
2023-09-27T11:36:43.185Z,1.83
2023-09-27T11:39:14.811Z,1.50
2023-09-27T11:41:43.580Z,1.65
2023-09-27T11:44:18.812Z,1.70
2023-09-27T11:46:48.073Z,1.48
2023-09-27T11:49:17.110Z,1.27
2023-09-27T11:51:45.517Z,1.45
2023-09-27T11:54:14.756Z,1.50
2023-09-27T11:56:43.417Z,1.83
2023-09-27T11:59:13.227Z,1.73
2023-09-27T12:01:41.137Z,1.67
2023-09-27T12:04:09.311Z,1.48
2023-09-27T12:06:37.419Z,1.42
2023-09-27T12:09:06.564Z,1.30
2023-09-27T12:11:35.748Z,1.17
2023-09-27T12:14:03.606Z,1.55
2023-09-27T12:16:31.423Z,1.33
2023-09-27T12:18:59.392Z,1.60
2023-09-27T12:21:27.284Z,1.40
2023-09-27T12:23:55.218Z,1.25
2023-09-27T12:26:23.218Z,1.15
2023-09-27T12:28:52.342Z,1.13
2023-09-27T12:31:20.186Z,1.27
2023-09-27T12:33:48.099Z,1.45
2023-09-27T12:36:16.018Z,1.60
2023-09-27T12:38:44.116Z,1.10
2023-09-27T12:41:12.003Z,1.20
2023-09-27T12:43:40.867Z,1.38
2023-09-27T12:46:10.435Z,1.10
2023-09-27T12:48:38.679Z,1.08
2023-09-27T12:51:10.523Z,1.40
2023-09-27T12:53:38.296Z,1.10
2023-09-27T12:56:07.318Z,1.20
2023-09-27T12:58:35.935Z,1.35
2023-09-27T13:01:03.826Z,1.30
2023-09-27T13:03:33.271Z,1.13
2023-09-27T13:06:01.582Z,1.10
2023-09-27T13:08:29.714Z,0.95
2023-09-27T13:10:57.441Z,1.40
2023-09-27T13:13:25.790Z,0.93
2023-09-27T13:15:53.517Z,0.80
2023-09-27T13:18:21.437Z,0.90
2023-09-27T13:20:50.843Z,0.77
2023-09-27T13:23:18.773Z,1.20
2023-09-27T13:25:53.532Z,1.10
2023-09-27T13:28:21.432Z,1.20
2023-09-27T13:30:49.230Z,1.20
2023-09-27T13:33:18.493Z,0.85
2023-09-27T13:35:46.492Z,1.20
2023-09-27T13:38:15.695Z,1.00
2023-09-27T13:40:45.203Z,1.10
2023-09-27T13:43:13.037Z,1.00
2023-09-27T13:45:40.937Z,1.17
2023-09-27T13:48:08.984Z,1.10
2023-09-27T13:50:37.169Z,1.00
2023-09-27T13:53:05.483Z,1.25
2023-09-27T13:55:35.055Z,1.17
2023-09-27T13:58:02.954Z,0.88
2023-09-27T14:00:31.356Z,0.95
2023-09-27T14:02:59.362Z,0.95
2023-09-27T14:05:27.586Z,0.90
2023-09-27T14:07:55.510Z,0.80
2023-09-27T14:10:24.362Z,0.95
2023-09-27T14:12:53.727Z,1.40
2023-09-27T14:15:22.389Z,1.10
2023-09-27T14:17:50.384Z,1.20
2023-09-27T14:20:20.389Z,1.00
2023-09-27T14:22:50.183Z,1.27
2023-09-27T14:25:18.012Z,1.10
2023-09-27T14:27:45.815Z,1.45
2023-09-27T14:30:15.980Z,1.00
2023-09-27T14:32:44.328Z,1.10
2023-09-27T14:35:13.785Z,1.17
2023-09-27T14:37:42.551Z,1.00
2023-09-27T14:40:11.630Z,1.27
2023-09-27T14:42:40.980Z,1.38
2023-09-27T14:45:20.223Z,1.20
2023-09-27T14:47:58.033Z,1.20
2023-09-27T14:50:25.981Z,1.30
2023-09-27T14:52:55.052Z,1.77
2023-09-27T14:55:25.379Z,1.15
2023-09-27T14:57:53.195Z,1.15
2023-09-27T15:00:23.736Z,1.30
2023-09-27T15:02:52.096Z,1.02
2023-09-27T15:05:21.664Z,1.10
2023-09-27T15:07:50.158Z,1.30
2023-09-27T15:10:20.211Z,1.23
2023-09-27T15:12:48.571Z,1.05
2023-09-27T15:15:16.436Z,1.17
2023-09-27T15:17:46.063Z,1.40
2023-09-27T15:20:15.672Z,1.25
2023-09-27T15:22:45.568Z,1.23
2023-09-27T15:25:13.508Z,1.25
2023-09-27T15:27:41.343Z,1.40
2023-09-27T15:30:11.705Z,1.38
2023-09-27T15:32:39.860Z,1.30
2023-09-27T15:35:09.345Z,1.30
2023-09-27T15:37:37.273Z,1.50
2023-09-27T15:40:07.624Z,1.10
2023-09-27T15:42:35.546Z,1.35
2023-09-27T15:45:10.675Z,1.10
2023-09-27T15:47:38.646Z,1.10
2023-09-27T15:50:10.153Z,1.45
2023-09-27T15:52:38.633Z,1.42
2023-09-27T15:55:10.379Z,1.30
2023-09-27T15:57:39.034Z,1.05
2023-09-27T16:00:08.574Z,1.10
2023-09-27T16:02:36.752Z,1.25
2023-09-27T16:05:05.800Z,1.60
2023-09-27T16:07:34.044Z,1.17
2023-09-27T16:10:02.404Z,1.50
2023-09-27T16:12:31.804Z,1.10
2023-09-27T16:14:59.742Z,1.33
2023-09-27T16:17:27.797Z,1.20
2023-09-27T16:19:55.774Z,1.35
2023-09-27T16:22:24.119Z,1.10
2023-09-27T16:24:52.722Z,1.10
2023-09-27T16:27:20.755Z,1.30
2023-09-27T16:29:50.315Z,1.50
2023-09-27T16:32:19.058Z,1.52
2023-09-27T16:34:47.939Z,1.33
2023-09-27T16:37:16.275Z,1.33
2023-09-27T16:39:44.927Z,1.48
2023-09-27T16:42:13.440Z,1.40
2023-09-27T16:44:42.032Z,1.70
2023-09-27T16:47:13.203Z,1.33
2023-09-27T16:49:43.219Z,1.27
2023-09-27T16:52:11.853Z,1.80
2023-09-27T16:54:41.239Z,1.60
2023-09-27T16:57:12.305Z,1.58
2023-09-27T16:59:41.186Z,1.35
2023-09-27T17:02:10.076Z,1.80
2023-09-27T17:04:40.756Z,1.85
2023-09-27T17:07:13.329Z,1.30
2023-09-27T17:09:42.003Z,1.90
2023-09-27T17:12:11.106Z,1.77
2023-09-27T17:14:43.045Z,1.48
2023-09-27T17:17:11.934Z,1.50
2023-09-27T17:19:42.086Z,1.80
2023-09-27T17:22:13.634Z,1.73
2023-09-27T17:24:42.286Z,1.42
2023-09-27T17:27:11.035Z,1.45
2023-09-27T17:29:46.169Z,1.65
2023-09-27T17:32:15.074Z,1.52
2023-09-27T17:34:46.089Z,1.73
2023-09-27T17:37:18.984Z,1.80
2023-09-27T17:39:53.431Z,2.33
2023-09-27T17:42:24.806Z,1.55
2023-09-27T17:44:54.531Z,1.92
2023-09-27T17:47:26.926Z,2.03
2023-09-27T17:49:59.145Z,1.85
2023-09-27T17:52:33.738Z,1.83
2023-09-27T17:55:09.367Z,1.67
2023-09-27T17:57:38.275Z,2.38
2023-09-27T18:00:12.030Z,1.80
2023-09-27T18:02:41.258Z,1.90
2023-09-27T18:05:15.168Z,2.05
2023-09-27T18:07:48.823Z,1.60
2023-09-27T18:10:17.856Z,1.83
2023-09-27T18:12:46.603Z,1.65
2023-09-27T18:15:27.132Z,2.05
2023-09-27T18:17:57.441Z,1.63
2023-09-27T18:20:30.457Z,1.80
2023-09-27T18:23:05.337Z,2.05
2023-09-27T18:25:34.740Z,1.90
2023-09-27T18:28:03.479Z,1.42
2023-09-27T18:30:36.286Z,1.90
2023-09-27T18:33:10.639Z,1.50
2023-09-27T18:35:43.819Z,2.10
2023-09-27T18:38:13.239Z,1.60
2023-09-27T18:40:44.728Z,1.25
2023-09-27T18:43:20.400Z,1.98
2023-09-27T18:45:49.721Z,2.08
2023-09-27T18:48:20.014Z,1.60
2023-09-27T18:50:54.324Z,1.48
2023-09-27T18:53:25.439Z,1.70
2023-09-27T18:55:54.428Z,1.73
2023-09-27T18:58:23.082Z,1.50
2023-09-27T19:00:54.759Z,1.88
2023-09-27T19:03:24.741Z,1.95
2023-09-27T19:05:55.189Z,1.92
2023-09-27T19:08:23.758Z,2.03
2023-09-27T19:10:51.845Z,1.55
2023-09-27T19:13:20.059Z,2.25
2023-09-27T19:15:48.283Z,1.77
2023-09-27T19:18:16.569Z,2.15
2023-09-27T19:20:44.495Z,1.98
2023-09-27T19:23:14.573Z,1.83
2023-09-27T19:25:43.839Z,1.85
2023-09-27T19:28:12.356Z,2.08
2023-09-27T19:30:40.961Z,1.80
2023-09-27T19:33:10.372Z,1.70
2023-09-27T19:35:41.935Z,1.88
2023-09-27T19:38:11.109Z,1.88
2023-09-27T19:40:41.389Z,1.38
2023-09-27T19:43:09.692Z,2.03
2023-09-27T19:45:38.006Z,1.73
2023-09-27T19:48:07.328Z,1.70
2023-09-27T19:50:36.324Z,1.60
2023-09-27T19:53:04.976Z,1.73
2023-09-27T19:55:33.153Z,1.33
2023-09-27T19:58:06.066Z,1.48
2023-09-27T20:00:34.708Z,1.60
2023-09-27T20:03:03.856Z,1.60
2023-09-27T20:05:33.780Z,1.55
2023-09-27T20:08:01.897Z,1.80
2023-09-27T20:10:33.588Z,1.25
2023-09-27T20:13:03.158Z,1.83
2023-09-27T20:15:38.927Z,1.42
2023-09-27T20:18:07.464Z,1.67
2023-09-27T20:20:36.415Z,1.40
2023-09-27T20:23:09.635Z,1.75
2023-09-27T20:25:38.009Z,1.50
2023-09-27T20:28:08.577Z,1.40
2023-09-27T20:30:37.051Z,1.88
2023-09-27T20:33:06.041Z,1.60
2023-09-27T20:35:35.676Z,1.40
2023-09-27T20:38:09.244Z,1.73
2023-09-27T20:40:37.980Z,1.58
2023-09-27T20:43:07.839Z,1.38
2023-09-27T20:45:36.071Z,2.03
2023-09-27T20:48:04.224Z,1.58
2023-09-27T20:50:32.587Z,1.48
2023-09-27T20:53:00.763Z,1.55
2023-09-27T20:55:29.328Z,1.45
2023-09-27T20:57:57.512Z,1.50
2023-09-27T21:00:27.513Z,1.52
2023-09-27T21:02:55.963Z,1.55
2023-09-27T21:05:24.290Z,1.65
2023-09-27T21:07:52.724Z,1.80
2023-09-27T21:10:21.127Z,1.70
2023-09-27T21:12:49.170Z,1.60
2023-09-27T21:15:17.637Z,1.55
2023-09-27T21:17:46.899Z,1.58
2023-09-27T21:20:15.490Z,1.60
2023-09-27T21:22:43.428Z,1.58
2023-09-27T21:25:11.999Z,1.40
2023-09-27T21:27:40.372Z,1.63
2023-09-27T21:30:09.838Z,1.77
2023-09-27T21:32:37.876Z,1.50
2023-09-27T21:35:08.819Z,1.63
2023-09-27T21:37:37.391Z,1.90
2023-09-27T21:40:06.929Z,2.15
2023-09-27T21:42:35.179Z,1.80
2023-09-27T21:45:03.336Z,1.92
2023-09-27T21:47:32.055Z,1.73
2023-09-27T21:50:00.591Z,1.60
2023-09-27T21:52:36.569Z,1.45
2023-09-27T21:55:05.878Z,1.55
2023-09-27T21:57:33.825Z,1.60
2023-09-27T22:00:02.232Z,1.70
2023-09-27T22:02:30.827Z,1.50
2023-09-27T22:04:59.946Z,1.77
2023-09-27T22:07:29.562Z,1.67
2023-09-27T22:09:57.508Z,1.42
2023-09-27T22:12:28.898Z,1.42
2023-09-27T22:14:57.825Z,1.55
2023-09-27T22:17:25.941Z,1.95
2023-09-27T22:19:55.458Z,1.48
2023-09-27T22:22:28.491Z,1.90
2023-09-27T22:24:58.739Z,1.58
2023-09-27T22:27:28.161Z,1.77
2023-09-27T22:29:57.517Z,1.63
2023-09-27T22:32:26.275Z,1.73
2023-09-27T22:34:56.671Z,1.55
2023-09-27T22:37:25.443Z,1.50
2023-09-27T22:40:04.575Z,1.42
2023-09-27T22:42:42.748Z,1.88
2023-09-27T22:45:29.138Z,1.60
2023-09-27T22:47:58.788Z,1.75
2023-09-27T22:50:30.038Z,1.45
2023-09-27T22:52:58.390Z,1.45
2023-09-27T22:55:28.786Z,1.55
2023-09-27T22:57:59.482Z,1.58
2023-09-27T23:00:32.318Z,1.77
2023-09-27T23:03:00.472Z,1.23
2023-09-27T23:05:33.967Z,1.30
2023-09-27T23:08:03.786Z,1.15
2023-09-27T23:10:37.248Z,1.70
2023-09-27T23:13:25.102Z,1.35
2023-09-27T23:15:55.013Z,1.63
2023-09-27T23:18:28.862Z,1.40
2023-09-27T23:20:57.788Z,1.20
2023-09-27T23:23:37.494Z,1.30
2023-09-27T23:26:04.877Z,1.67
2023-09-27T23:28:45.800Z,1.83
2023-09-27T23:31:13.426Z,1.23
2023-09-27T23:33:45.557Z,1.35
2023-09-27T23:36:25.041Z,1.30
2023-09-27T23:39:04.760Z,1.17
2023-09-27T23:41:32.344Z,1.52
2023-09-27T23:44:06.259Z,1.25
2023-09-27T23:46:39.752Z,1.27
2023-09-27T23:49:08.763Z,1.10
2023-09-27T23:51:37.282Z,1.25
2023-09-27T23:54:08.928Z,1.10
2023-09-27T23:56:38.287Z,1.88
2023-09-27T23:59:21.030Z,1.38
